createdAt,value
2022-11-20T00:01:14.848Z,11.37
2022-11-20T00:03:45.722Z,10.50
2022-11-20T00:06:19.318Z,9.40
2022-11-20T00:08:50.117Z,11.20
2022-11-20T00:11:20.518Z,11.23
2022-11-20T00:13:48.664Z,9.13
2022-11-20T00:16:17.185Z,10.93
2022-11-20T00:18:44.882Z,11.90
2022-11-20T00:21:13.046Z,11.17
2022-11-20T00:23:40.465Z,11.93
2022-11-20T00:26:08.920Z,10.87
2022-11-20T00:28:36.073Z,9.50
2022-11-20T00:31:04.640Z,10.30
2022-11-20T00:33:31.843Z,11.07
2022-11-20T00:36:05.882Z,9.83
2022-11-20T00:38:38.718Z,11.17
2022-11-20T00:41:12.756Z,10.57
2022-11-20T00:43:43.671Z,9.90
2022-11-20T00:46:11.786Z,10.53
2022-11-20T00:48:38.858Z,9.60
2022-11-20T00:51:06.156Z,9.40
2022-11-20T00:53:33.577Z,9.63
2022-11-20T00:56:06.100Z,10.20
2022-11-20T00:58:34.892Z,10.90
2022-11-20T01:01:06.918Z,10.97
2022-11-20T01:03:34.705Z,9.10
2022-11-20T01:06:02.579Z,10.63
2022-11-20T01:08:37.922Z,10.83
2022-11-20T01:11:06.619Z,10.17
2022-11-20T01:13:40.152Z,9.73
2022-11-20T01:16:13.950Z,10.27
2022-11-20T01:18:42.260Z,9.80
2022-11-20T01:21:10.735Z,9.93
2022-11-20T01:23:39.044Z,10.30
2022-11-20T01:26:07.432Z,8.80
2022-11-20T01:28:35.348Z,10.47
2022-11-20T01:31:03.639Z,10.43
2022-11-20T01:33:30.700Z,11.53
2022-11-20T01:36:04.641Z,11.53
2022-11-20T01:38:31.689Z,10.23
2022-11-20T01:41:01.660Z,10.30
2022-11-20T01:43:29.647Z,10.47
2022-11-20T01:46:01.139Z,10.13
2022-11-20T01:48:30.224Z,9.40
2022-11-20T01:50:58.571Z,10.57
2022-11-20T01:53:26.864Z,10.97
2022-11-20T01:55:57.524Z,11.13
2022-11-20T01:58:29.206Z,11.43
2022-11-20T02:00:56.459Z,10.20
2022-11-20T02:03:23.564Z,10.23
2022-11-20T02:05:57.104Z,13.23
2022-11-20T02:08:25.086Z,13.47
2022-11-20T02:10:52.210Z,13.60
2022-11-20T02:13:37.971Z,12.27
2022-11-20T02:16:05.356Z,12.47
2022-11-20T02:18:32.462Z,12.07
2022-11-20T02:21:08.884Z,12.30
2022-11-20T02:23:53.390Z,11.73
2022-11-20T02:26:21.766Z,12.23
2022-11-20T02:28:48.800Z,11.57
2022-11-20T02:31:15.986Z,10.93
2022-11-20T02:33:43.057Z,11.83
2022-11-20T02:36:12.984Z,11.53
2022-11-20T02:38:40.059Z,11.30
2022-11-20T02:41:07.151Z,11.33
2022-11-20T02:43:34.248Z,10.87
2022-11-20T02:46:01.495Z,11.60
2022-11-20T02:48:32.701Z,10.53
2022-11-20T02:51:01.075Z,11.30
2022-11-20T02:53:28.143Z,11.93
2022-11-20T02:55:55.212Z,11.10
2022-11-20T02:58:22.276Z,11.57
2022-11-20T03:00:49.346Z,10.83
2022-11-20T03:03:16.492Z,10.83
2022-11-20T03:05:43.568Z,10.70
2022-11-20T03:08:10.925Z,10.50
2022-11-20T03:10:38.032Z,11.17
2022-11-20T03:13:05.070Z,11.37
2022-11-20T03:15:32.121Z,10.23
2022-11-20T03:17:59.341Z,11.30
2022-11-20T03:20:26.404Z,11.67
2022-11-20T03:22:55.075Z,11.63
2022-11-20T03:25:22.481Z,10.37
2022-11-20T03:27:49.558Z,10.80
2022-11-20T03:30:16.737Z,11.20
2022-11-20T03:32:43.883Z,10.27
2022-11-20T03:35:11.069Z,10.07
2022-11-20T03:37:38.177Z,10.73
2022-11-20T03:40:05.539Z,10.80
2022-11-20T03:42:45.965Z,11.20
2022-11-20T03:45:14.772Z,10.53
2022-11-20T03:47:41.947Z,10.13
2022-11-20T03:50:09.618Z,10.60
2022-11-20T03:52:36.759Z,9.60
2022-11-20T03:55:03.930Z,10.57
2022-11-20T03:57:31.221Z,11.13
2022-11-20T03:59:58.276Z,10.33
2022-11-20T04:02:25.365Z,10.67
2022-11-20T04:04:52.413Z,10.07
2022-11-20T04:07:19.540Z,10.23
2022-11-20T04:09:46.697Z,10.27
2022-11-20T04:12:13.760Z,10.53
2022-11-20T04:14:40.855Z,10.53
2022-11-20T04:17:07.968Z,10.53
2022-11-20T04:19:35.046Z,10.60
2022-11-20T04:22:02.200Z,10.70
2022-11-20T04:24:29.307Z,10.77
2022-11-20T04:26:56.390Z,10.50
2022-11-20T04:29:23.762Z,9.67
2022-11-20T04:31:51.004Z,12.17
2022-11-20T04:34:18.146Z,10.17
2022-11-20T04:36:45.588Z,10.43
2022-11-20T04:39:14.054Z,11.17
2022-11-20T04:41:41.198Z,10.87
2022-11-20T04:44:08.319Z,10.83
2022-11-20T04:46:36.930Z,8.90
2022-11-20T04:49:04.106Z,10.73
2022-11-20T04:51:31.421Z,11.27
2022-11-20T04:53:58.490Z,10.53
2022-11-20T04:56:25.582Z,10.83
2022-11-20T04:58:52.631Z,10.20
2022-11-20T05:01:21.498Z,9.90
2022-11-20T05:03:48.827Z,10.70
2022-11-20T05:06:16.964Z,11.23
2022-11-20T05:08:44.389Z,9.83
2022-11-20T05:11:12.698Z,10.70
2022-11-20T05:13:40.291Z,9.77
2022-11-20T05:16:08.665Z,10.10
2022-11-20T05:18:37.314Z,10.27
2022-11-20T05:21:05.210Z,10.13
2022-11-20T05:23:33.565Z,9.90
2022-11-20T05:26:02.088Z,9.73
2022-11-20T05:28:30.541Z,10.83
2022-11-20T05:31:39.859Z,10.23
2022-11-20T05:34:28.026Z,10.07
2022-11-20T05:36:56.234Z,10.93
2022-11-20T05:39:24.536Z,9.27
2022-11-20T05:42:13.592Z,10.50
2022-11-20T05:44:42.959Z,11.97
2022-11-20T05:47:12.947Z,12.47
2022-11-20T05:49:40.934Z,13.43
2022-11-20T05:52:08.940Z,13.97
2022-11-20T05:54:36.910Z,12.17
2022-11-20T05:57:04.700Z,13.93
2022-11-20T05:59:32.520Z,14.07
2022-11-20T06:02:00.240Z,15.00
2022-11-20T06:04:27.734Z,14.37
2022-11-20T06:06:55.348Z,14.73
2022-11-20T06:09:23.222Z,14.67
2022-11-20T06:11:50.771Z,15.50
2022-11-20T06:14:18.115Z,13.33
2022-11-20T06:16:46.914Z,15.97
2022-11-20T06:19:15.847Z,16.40
2022-11-20T06:21:43.746Z,15.73
2022-11-20T06:24:12.304Z,15.50
2022-11-20T06:30:07.602Z,16.90
2022-11-20T06:32:37.055Z,18.17
2022-11-20T06:35:07.149Z,16.30
2022-11-20T06:37:38.632Z,17.23
2022-11-20T06:40:14.815Z,17.97
2022-11-20T06:42:43.900Z,19.27
2022-11-20T06:45:11.817Z,19.97
2022-11-20T06:47:38.934Z,18.90
2022-11-20T06:50:08.003Z,19.97
2022-11-20T06:52:43.383Z,18.87
2022-11-20T06:55:13.952Z,20.70
2022-11-20T06:57:44.566Z,20.57
2022-11-20T07:00:13.885Z,22.30
2022-11-20T07:02:41.062Z,20.63
2022-11-20T07:05:08.153Z,21.27
2022-11-20T07:07:35.305Z,20.00
2022-11-20T07:10:02.384Z,20.33
2022-11-20T07:12:29.425Z,20.57
2022-11-20T07:14:56.583Z,20.50
2022-11-20T07:17:23.750Z,23.03
2022-11-20T07:19:50.808Z,23.30
2022-11-20T07:22:18.156Z,22.47
2022-11-20T07:24:46.239Z,20.70
2022-11-20T07:27:13.607Z,22.60
2022-11-20T07:29:40.646Z,23.07
2022-11-20T07:32:07.816Z,20.80
2022-11-20T07:34:35.065Z,21.57
2022-11-20T07:37:06.033Z,23.13
2022-11-20T07:39:36.124Z,21.70
2022-11-20T07:42:03.212Z,23.23
2022-11-20T07:44:30.294Z,23.63
2022-11-20T07:46:57.332Z,23.43
2022-11-20T07:49:24.632Z,22.40
2022-11-20T07:51:54.615Z,21.07
2022-11-20T07:54:22.328Z,23.47
2022-11-20T07:56:50.191Z,23.27
2022-11-20T07:59:17.711Z,24.03
2022-11-20T08:01:44.797Z,23.00
2022-11-20T08:04:12.372Z,27.73
2022-11-20T08:09:54.948Z,39.77
2022-11-20T08:12:41.119Z,25.60
2022-11-20T08:15:13.151Z,23.07
2022-11-20T08:17:40.685Z,21.07
2022-11-20T08:20:07.955Z,24.20
2022-11-20T08:22:35.039Z,20.43
2022-11-20T08:25:02.466Z,21.30
2022-11-20T08:27:29.908Z,17.73
2022-11-20T08:29:57.210Z,19.83
2022-11-20T08:32:24.608Z,18.93
2022-11-20T08:34:51.746Z,20.87
2022-11-20T08:37:18.845Z,20.67
2022-11-20T08:39:45.922Z,21.03
2022-11-20T08:42:13.025Z,21.87
2022-11-20T08:44:40.312Z,21.47
2022-11-20T08:47:07.383Z,20.43
2022-11-20T08:49:37.332Z,21.10
2022-11-20T08:52:04.558Z,20.67
2022-11-20T08:54:31.631Z,18.93
2022-11-20T08:56:58.805Z,18.20
2022-11-20T08:59:58.633Z,17.60
2022-11-20T09:02:13.077Z,17.70
2022-11-20T09:04:40.266Z,17.93
2022-11-20T09:07:07.342Z,17.90
2022-11-20T09:09:34.557Z,16.43
2022-11-20T09:12:01.611Z,17.00
2022-11-20T09:14:33.993Z,17.10
2022-11-20T09:17:01.066Z,18.03
2022-11-20T09:19:35.528Z,17.73
2022-11-20T09:22:03.384Z,17.57
2022-11-20T09:24:30.876Z,20.73
2022-11-20T09:26:57.998Z,19.53
2022-11-20T09:29:25.973Z,20.50
2022-11-20T09:31:53.022Z,21.13
2022-11-20T09:34:20.096Z,19.57
2022-11-20T09:36:47.208Z,20.97
2022-11-20T09:39:14.316Z,19.50
2022-11-20T09:41:53.599Z,21.00
2022-11-20T09:44:28.776Z,19.97
2022-11-20T09:47:16.095Z,22.20
2022-11-20T09:50:02.006Z,19.37
2022-11-20T09:52:34.564Z,22.03
2022-11-20T09:55:03.737Z,22.60
2022-11-20T09:57:36.476Z,21.77
2022-11-20T10:00:05.682Z,22.30
2022-11-20T10:02:41.159Z,23.07
2022-11-20T10:05:13.879Z,20.67
2022-11-20T10:07:45.150Z,20.27
2022-11-20T10:10:20.833Z,18.90
2022-11-20T10:12:58.261Z,21.47
2022-11-20T10:15:25.374Z,21.23
2022-11-20T10:17:52.496Z,19.10
2022-11-20T10:20:19.668Z,20.43
2022-11-20T10:22:56.081Z,18.33
2022-11-20T10:25:26.108Z,19.27
2022-11-20T10:28:11.512Z,17.80
2022-11-20T10:30:50.217Z,17.43
2022-11-20T10:33:27.101Z,18.17
2022-11-20T10:35:57.169Z,17.47
2022-11-20T10:38:30.788Z,17.67
2022-11-20T10:41:21.099Z,17.37
2022-11-20T10:43:49.705Z,16.33
2022-11-20T10:46:18.888Z,17.27
2022-11-20T10:48:46.996Z,14.67
2022-11-20T10:51:14.728Z,16.60
2022-11-20T10:53:51.018Z,14.23
2022-11-20T10:56:21.426Z,13.73
2022-11-20T10:59:02.350Z,14.63
2022-11-20T11:01:31.129Z,15.13
2022-11-20T11:03:58.673Z,14.13
2022-11-20T11:06:25.776Z,14.00
2022-11-20T11:08:54.945Z,14.40
2022-11-20T11:11:23.484Z,13.20
2022-11-20T11:13:50.897Z,12.83
2022-11-20T11:16:27.927Z,12.93
2022-11-20T11:19:05.314Z,12.50
2022-11-20T11:21:32.539Z,11.93
2022-11-20T11:24:26.918Z,13.13
2022-11-20T11:26:59.951Z,13.27
2022-11-20T11:29:30.306Z,12.10
2022-11-20T11:32:29.952Z,11.90
2022-11-20T11:35:04.997Z,12.13
2022-11-20T11:37:36.892Z,12.37
2022-11-20T11:42:58.344Z,12.57
2022-11-20T11:45:26.261Z,11.33
2022-11-20T11:47:54.291Z,11.00
2022-11-20T11:50:25.869Z,10.30
2022-11-20T11:53:14.895Z,11.03
2022-11-20T11:55:47.590Z,10.30
2022-11-20T11:58:33.701Z,9.87
2022-11-20T12:01:04.948Z,10.40
2022-11-20T12:03:44.304Z,7.80
2022-11-20T12:06:15.655Z,9.40
2022-11-20T12:08:49.091Z,7.60
2022-11-20T12:11:20.172Z,8.93
2022-11-20T12:13:54.483Z,8.17
2022-11-20T12:16:22.285Z,8.43
2022-11-20T12:18:50.762Z,7.23
2022-11-20T12:21:44.284Z,6.93
2022-11-20T12:24:27.109Z,6.53
2022-11-20T12:27:12.990Z,6.60
2022-11-20T12:29:49.261Z,6.77
2022-11-20T12:32:16.347Z,6.30
2022-11-20T12:35:06.066Z,6.73
2022-11-20T12:37:45.040Z,6.50
2022-11-20T12:40:12.317Z,6.47
2022-11-20T12:43:04.088Z,5.93
2022-11-20T12:45:49.768Z,6.47
2022-11-20T12:48:31.601Z,5.43
2022-11-20T12:51:15.194Z,5.93
2022-11-20T12:53:45.436Z,6.43
2022-11-20T12:56:32.778Z,6.67
2022-11-20T12:59:02.712Z,6.27
2022-11-20T13:01:41.509Z,6.20
2022-11-20T13:04:28.900Z,7.63
2022-11-20T13:06:56.470Z,8.23
2022-11-20T13:09:24.616Z,8.37
2022-11-20T13:12:04.856Z,8.40
2022-11-20T13:14:32.088Z,9.87
2022-11-20T13:17:25.677Z,9.83
2022-11-20T13:19:54.820Z,10.30
2022-11-20T13:22:44.111Z,11.00
2022-11-20T13:25:16.297Z,10.70
2022-11-20T13:27:50.362Z,11.53
2022-11-20T13:30:19.189Z,11.80
2022-11-20T13:32:52.109Z,12.93
2022-11-20T13:35:29.763Z,12.57
2022-11-20T13:38:03.084Z,17.87
2022-11-20T13:40:30.213Z,16.77
2022-11-20T13:43:26.696Z,14.33
2022-11-20T13:46:00.164Z,14.03
2022-11-20T13:48:33.194Z,15.27
2022-11-20T13:51:19.103Z,15.10
2022-11-20T13:53:49.171Z,15.70
2022-11-20T13:56:22.114Z,15.47
2022-11-20T13:59:02.306Z,16.37
2022-11-20T14:01:33.001Z,16.47
2022-11-20T14:04:07.596Z,17.80
2022-11-20T14:06:46.301Z,17.27
2022-11-20T14:09:32.202Z,17.83
2022-11-20T14:11:59.645Z,17.40
2022-11-20T14:14:28.786Z,16.73
2022-11-20T14:17:24.275Z,15.00
2022-11-20T14:19:52.756Z,17.07
2022-11-20T14:22:24.981Z,18.03
2022-11-20T14:25:08.579Z,15.57
2022-11-20T14:27:38.555Z,17.97
2022-11-20T14:30:06.122Z,17.73
2022-11-20T14:32:35.936Z,17.47
2022-11-20T14:35:12.279Z,17.50
2022-11-20T14:37:41.746Z,17.30
2022-11-20T14:40:31.963Z,17.27
2022-11-20T14:42:59.926Z,17.23
2022-11-20T14:45:27.416Z,16.97
2022-11-20T14:47:57.727Z,18.23
2022-11-20T14:50:25.991Z,17.20
2022-11-20T14:52:57.772Z,18.03
2022-11-20T14:55:38.336Z,17.57
2022-11-20T14:58:25.447Z,17.67
2022-11-20T15:01:07.002Z,17.83
2022-11-20T15:03:41.292Z,18.13
2022-11-20T15:06:11.465Z,17.87
2022-11-20T15:08:38.267Z,17.07
2022-11-20T15:11:22.412Z,16.70
2022-11-20T15:13:49.045Z,17.60
2022-11-20T15:16:24.477Z,17.40
2022-11-20T15:18:51.432Z,18.33
2022-11-20T15:21:21.819Z,18.77
2022-11-20T15:23:48.882Z,17.77
2022-11-20T15:26:23.341Z,17.43
2022-11-20T15:28:51.125Z,18.60
2022-11-20T15:31:21.438Z,17.73
2022-11-20T15:33:48.746Z,16.57
2022-11-20T15:36:15.776Z,18.37
2022-11-20T15:38:42.597Z,16.97
2022-11-20T15:41:10.008Z,16.10
2022-11-20T15:43:36.923Z,18.43
2022-11-20T15:46:15.950Z,18.13
2022-11-20T15:48:48.209Z,16.53
2022-11-20T15:51:24.968Z,16.93
2022-11-20T15:53:51.647Z,15.97
2022-11-20T15:56:18.294Z,17.57
2022-11-20T15:58:45.013Z,15.87
2022-11-20T16:01:14.314Z,18.10
2022-11-20T16:03:42.294Z,15.97
2022-11-20T16:06:09.337Z,16.40
2022-11-20T16:08:35.997Z,17.83
2022-11-20T16:11:02.851Z,18.60
2022-11-20T16:13:49.941Z,18.50
2022-11-20T16:16:26.877Z,16.57
2022-11-20T16:18:53.533Z,16.23
2022-11-20T16:21:20.345Z,15.90
2022-11-20T16:23:49.741Z,16.57
2022-11-20T16:26:19.409Z,16.50
2022-11-20T16:28:46.228Z,15.63
2022-11-20T16:31:18.317Z,16.30
2022-11-20T16:33:50.796Z,15.93
2022-11-20T16:36:18.178Z,16.53
2022-11-20T16:38:44.825Z,16.40
2022-11-20T16:41:14.493Z,16.47
2022-11-20T16:43:52.474Z,16.17
2022-11-20T16:46:21.715Z,18.03
2022-11-20T16:48:59.546Z,16.43
2022-11-20T16:51:27.288Z,16.77
2022-11-20T16:53:55.931Z,16.10
2022-11-20T16:56:25.228Z,15.77
2022-11-20T16:58:53.640Z,16.47
2022-11-20T17:01:21.998Z,15.27
2022-11-20T17:03:55.062Z,17.57
2022-11-20T17:06:24.122Z,17.57
2022-11-20T17:08:50.925Z,18.10
2022-11-20T17:11:19.525Z,16.93
2022-11-20T17:13:46.798Z,18.33
2022-11-20T17:16:16.908Z,17.50
2022-11-20T17:18:44.333Z,16.77
2022-11-20T17:21:12.905Z,16.40
2022-11-20T17:23:42.049Z,17.57
2022-11-20T17:26:21.675Z,17.83
2022-11-20T17:29:01.085Z,17.40
2022-11-20T17:31:29.199Z,16.23
2022-11-20T17:33:56.359Z,17.03
2022-11-20T17:36:23.269Z,18.43
2022-11-20T17:38:51.940Z,15.23
2022-11-20T17:41:22.330Z,16.90
2022-11-20T17:43:49.633Z,16.70
2022-11-20T17:46:21.569Z,16.77
2022-11-20T17:48:51.567Z,15.50
2022-11-20T17:51:26.877Z,16.27
2022-11-20T17:53:56.436Z,17.83
2022-11-20T17:56:43.302Z,17.80
2022-11-20T17:59:12.696Z,17.50
2022-11-20T18:01:42.879Z,17.50
2022-11-20T18:04:10.547Z,18.23
2022-11-20T18:06:37.338Z,17.50
2022-11-20T18:09:05.461Z,17.33
2022-11-20T18:11:34.749Z,17.30
2022-11-20T18:14:24.311Z,16.63
2022-11-20T18:16:57.012Z,19.33
2022-11-20T18:19:31.440Z,19.77
2022-11-20T18:22:01.203Z,18.27
2022-11-20T18:24:27.906Z,18.87
2022-11-20T18:26:54.567Z,18.37
2022-11-20T18:29:21.618Z,17.73
2022-11-20T18:31:49.104Z,18.90
2022-11-20T18:34:15.842Z,18.90
2022-11-20T18:36:43.741Z,19.47
2022-11-20T18:39:11.987Z,20.30
2022-11-20T18:41:57.737Z,18.87
2022-11-20T18:44:45.571Z,20.07
2022-11-20T18:47:15.851Z,19.90
2022-11-20T18:49:46.346Z,19.53
2022-11-20T18:52:13.627Z,20.53
2022-11-20T18:54:40.418Z,21.33
2022-11-20T18:57:07.478Z,19.13
2022-11-20T18:59:34.143Z,17.43
2022-11-20T19:02:00.914Z,17.77
2022-11-20T19:04:28.076Z,16.73
2022-11-20T19:06:56.280Z,15.93
2022-11-20T19:09:24.159Z,17.97
2022-11-20T19:11:51.471Z,14.63
2022-11-20T19:14:18.291Z,13.60
2022-11-20T19:16:45.031Z,12.97
2022-11-20T19:19:11.903Z,13.43
2022-11-20T19:21:38.548Z,11.77
2022-11-20T19:24:05.696Z,11.30
2022-11-20T19:26:35.613Z,11.63
2022-11-20T19:29:03.497Z,11.97
2022-11-20T19:31:30.446Z,11.77
2022-11-20T19:34:02.357Z,12.07
2022-11-20T19:36:34.856Z,10.80
2022-11-20T19:39:05.486Z,10.43
2022-11-20T19:41:33.900Z,10.77
2022-11-20T19:44:02.983Z,12.07
2022-11-20T19:46:32.176Z,11.73
2022-11-20T19:48:58.899Z,11.90
2022-11-20T19:51:31.342Z,13.33
2022-11-20T19:53:59.481Z,12.20
2022-11-20T19:56:28.213Z,11.70
2022-11-20T19:58:55.665Z,11.17
2022-11-20T20:01:25.464Z,11.40
2022-11-20T20:03:57.612Z,11.80
2022-11-20T20:06:27.859Z,12.03
2022-11-20T20:09:14.934Z,11.57
2022-11-20T20:11:45.487Z,13.33
2022-11-20T20:14:15.318Z,11.20
2022-11-20T20:16:42.646Z,12.40
2022-11-20T20:19:13.648Z,10.90
2022-11-20T20:21:41.370Z,10.83
2022-11-20T20:24:13.407Z,10.47
2022-11-20T20:26:40.454Z,9.53
2022-11-20T20:29:07.176Z,8.80
2022-11-20T20:31:34.133Z,9.80
2022-11-20T20:34:01.531Z,10.00
2022-11-20T20:36:28.268Z,8.70
2022-11-20T20:38:56.543Z,10.57
2022-11-20T20:41:24.958Z,10.47
2022-11-20T20:44:11.492Z,10.20
2022-11-20T20:46:38.506Z,9.30
2022-11-20T20:49:05.531Z,10.53
2022-11-20T20:51:32.178Z,11.63
2022-11-20T20:53:59.354Z,8.57
2022-11-20T20:56:26.110Z,10.27
2022-11-20T20:58:52.795Z,9.57
2022-11-20T21:01:20.200Z,10.73
2022-11-20T21:03:46.994Z,10.00
2022-11-20T21:06:13.990Z,9.40
2022-11-20T21:08:42.093Z,11.73
2022-11-20T21:11:13.088Z,11.53
2022-11-20T21:13:41.241Z,11.23
2022-11-20T21:16:08.023Z,11.63
2022-11-20T21:18:35.192Z,10.80
2022-11-20T21:21:27.578Z,11.43
2022-11-20T21:23:54.360Z,12.53
2022-11-20T21:26:23.303Z,12.17
2022-11-20T21:28:50.327Z,28.67
2022-11-20T21:31:22.349Z,24.57
2022-11-20T21:33:51.421Z,21.73
2022-11-20T21:36:22.807Z,14.53
2022-11-20T21:38:52.349Z,19.20
2022-11-20T21:41:21.686Z,26.73
2022-11-20T21:44:15.901Z,15.53
2022-11-20T21:46:39.091Z,28.00
2022-11-20T21:49:06.203Z,52.07
2022-11-20T21:51:33.290Z,18.50
2022-11-20T21:54:00.365Z,14.63
2022-11-20T21:56:27.486Z,16.37
2022-11-20T21:58:55.053Z,27.60
2022-11-20T22:01:22.133Z,13.97
2022-11-20T22:03:53.295Z,18.43
2022-11-20T22:06:20.993Z,17.20
2022-11-20T22:08:48.990Z,26.07
2022-11-20T22:11:17.401Z,18.27
2022-11-20T22:14:03.738Z,24.83
2022-11-20T22:16:33.624Z,14.17
2022-11-20T22:19:00.741Z,20.23
2022-11-20T22:21:29.047Z,15.00
2022-11-20T22:23:56.646Z,13.93
2022-11-20T22:26:25.064Z,14.73
2022-11-20T22:28:53.072Z,13.87
2022-11-20T22:31:21.577Z,16.37
2022-11-20T22:33:49.090Z,13.23
2022-11-20T22:36:17.452Z,15.37
2022-11-20T22:38:44.649Z,15.10
2022-11-20T22:41:15.865Z,14.73
2022-11-20T22:43:43.667Z,16.67
2022-11-20T22:46:18.086Z,16.67
2022-11-20T22:48:49.595Z,16.50
2022-11-20T22:51:17.681Z,17.20
2022-11-20T22:53:44.996Z,23.03
2022-11-20T22:56:13.240Z,16.37
2022-11-20T22:58:41.411Z,15.60
2022-11-20T23:01:12.816Z,19.80
2022-11-20T23:03:40.888Z,15.10
2022-11-20T23:06:09.733Z,16.77
2022-11-20T23:08:37.366Z,17.87
2022-11-20T23:11:05.960Z,17.53
2022-11-20T23:13:33.179Z,17.50
2022-11-20T23:16:04.995Z,17.07
2022-11-20T23:18:32.196Z,17.30
2022-11-20T23:21:12.723Z,17.17
2022-11-20T23:23:40.025Z,17.30
2022-11-20T23:26:10.441Z,18.70
2022-11-20T23:28:38.040Z,17.47
2022-11-20T23:31:05.646Z,18.53
2022-11-20T23:33:35.558Z,18.30
2022-11-20T23:36:02.773Z,18.20
2022-11-20T23:38:29.929Z,19.30
2022-11-20T23:40:57.096Z,18.47
2022-11-20T23:43:24.316Z,19.73
2022-11-20T23:45:55.702Z,17.93
2022-11-20T23:48:24.193Z,19.47
2022-11-20T23:50:51.571Z,19.03
2022-11-20T23:53:19.019Z,18.40
2022-11-20T23:55:50.153Z,18.67
2022-11-20T23:58:17.696Z,18.20
